sensor_id;sensor_type;location;lat;lon;timestamp;P1;durP1;ratioP1;P2;durP2;ratioP2
20415;SDS011;10367;52.202;5.996;2023-05-13T00:00:08;20.67;;;18.60;;
20415;SDS011;10367;52.202;5.996;2023-05-13T00:02:40;21.37;;;18.97;;
20415;SDS011;10367;52.202;5.996;2023-05-13T00:05:09;26.57;;;20.90;;
20415;SDS011;10367;52.202;5.996;2023-05-13T00:07:38;20.20;;;17.60;;
20415;SDS011;10367;52.202;5.996;2023-05-13T00:10:07;17.83;;;16.33;;
20415;SDS011;10367;52.202;5.996;2023-05-13T00:12:37;19.47;;;17.57;;
20415;SDS011;10367;52.202;5.996;2023-05-13T00:15:06;20.00;;;18.07;;
20415;SDS011;10367;52.202;5.996;2023-05-13T00:17:36;18.93;;;17.27;;
20415;SDS011;10367;52.202;5.996;2023-05-13T00:20:07;19.03;;;17.30;;
20415;SDS011;10367;52.202;5.996;2023-05-13T00:22:36;18.97;;;17.20;;
20415;SDS011;10367;52.202;5.996;2023-05-13T00:25:05;18.03;;;16.33;;
20415;SDS011;10367;52.202;5.996;2023-05-13T00:27:34;20.40;;;17.70;;
20415;SDS011;10367;52.202;5.996;2023-05-13T00:30:03;19.30;;;17.40;;
20415;SDS011;10367;52.202;5.996;2023-05-13T00:32:33;20.20;;;18.03;;
20415;SDS011;10367;52.202;5.996;2023-05-13T00:35:02;19.37;;;16.80;;
20415;SDS011;10367;52.202;5.996;2023-05-13T00:37:32;20.13;;;18.13;;
20415;SDS011;10367;52.202;5.996;2023-05-13T00:40:01;18.23;;;16.60;;
20415;SDS011;10367;52.202;5.996;2023-05-13T00:42:30;24.10;;;18.73;;
20415;SDS011;10367;52.202;5.996;2023-05-13T00:44:59;20.50;;;18.17;;
20415;SDS011;10367;52.202;5.996;2023-05-13T00:47:28;19.80;;;17.73;;
20415;SDS011;10367;52.202;5.996;2023-05-13T00:50:00;19.00;;;17.17;;
20415;SDS011;10367;52.202;5.996;2023-05-13T00:52:29;21.23;;;19.00;;
20415;SDS011;10367;52.202;5.996;2023-05-13T00:55:00;20.73;;;18.17;;
20415;SDS011;10367;52.202;5.996;2023-05-13T00:57:30;18.70;;;17.00;;
20415;SDS011;10367;52.202;5.996;2023-05-13T00:59:59;18.93;;;17.00;;
20415;SDS011;10367;52.202;5.996;2023-05-13T01:02:30;19.33;;;17.43;;
20415;SDS011;10367;52.202;5.996;2023-05-13T01:05:05;18.93;;;17.13;;
20415;SDS011;10367;52.202;5.996;2023-05-13T01:07:42;18.80;;;16.80;;
20415;SDS011;10367;52.202;5.996;2023-05-13T01:10:19;25.37;;;18.37;;
20415;SDS011;10367;52.202;5.996;2023-05-13T01:12:55;18.47;;;16.63;;
20415;SDS011;10367;52.202;5.996;2023-05-13T01:15:27;18.90;;;17.00;;
20415;SDS011;10367;52.202;5.996;2023-05-13T01:17:59;20.97;;;17.63;;
20415;SDS011;10367;52.202;5.996;2023-05-13T01:20:33;20.03;;;17.67;;
20415;SDS011;10367;52.202;5.996;2023-05-13T01:23:06;18.73;;;16.93;;
20415;SDS011;10367;52.202;5.996;2023-05-13T01:25:35;20.47;;;18.00;;
20415;SDS011;10367;52.202;5.996;2023-05-13T01:28:03;18.73;;;16.93;;
20415;SDS011;10367;52.202;5.996;2023-05-13T01:30:33;18.87;;;16.70;;
20415;SDS011;10367;52.202;5.996;2023-05-13T01:33:02;18.07;;;16.27;;
20415;SDS011;10367;52.202;5.996;2023-05-13T01:35:32;16.87;;;15.10;;
20415;SDS011;10367;52.202;5.996;2023-05-13T01:38:01;18.87;;;16.97;;
20415;SDS011;10367;52.202;5.996;2023-05-13T01:40:32;17.83;;;15.93;;
20415;SDS011;10367;52.202;5.996;2023-05-13T01:43:02;19.30;;;16.50;;
20415;SDS011;10367;52.202;5.996;2023-05-13T01:45:30;18.57;;;16.80;;
20415;SDS011;10367;52.202;5.996;2023-05-13T01:48:00;18.07;;;16.30;;
20415;SDS011;10367;52.202;5.996;2023-05-13T01:50:29;22.20;;;17.30;;
20415;SDS011;10367;52.202;5.996;2023-05-13T01:52:58;30.37;;;20.07;;
20415;SDS011;10367;52.202;5.996;2023-05-13T01:55:27;18.13;;;16.07;;
20415;SDS011;10367;52.202;5.996;2023-05-13T01:57:57;17.87;;;15.77;;
20415;SDS011;10367;52.202;5.996;2023-05-13T02:00:26;19.37;;;16.10;;
20415;SDS011;10367;52.202;5.996;2023-05-13T02:02:55;18.10;;;16.03;;
20415;SDS011;10367;52.202;5.996;2023-05-13T02:05:24;17.37;;;15.73;;
20415;SDS011;10367;52.202;5.996;2023-05-13T02:07:52;19.83;;;16.03;;
20415;SDS011;10367;52.202;5.996;2023-05-13T02:10:21;29.97;;;18.50;;
20415;SDS011;10367;52.202;5.996;2023-05-13T02:12:50;23.67;;;17.50;;
20415;SDS011;10367;52.202;5.996;2023-05-13T02:15:20;26.70;;;19.83;;
20415;SDS011;10367;52.202;5.996;2023-05-13T02:17:49;23.30;;;18.00;;
20415;SDS011;10367;52.202;5.996;2023-05-13T02:20:18;20.80;;;17.40;;
20415;SDS011;10367;52.202;5.996;2023-05-13T02:22:49;27.90;;;19.77;;
20415;SDS011;10367;52.202;5.996;2023-05-13T02:25:18;20.03;;;15.93;;
20415;SDS011;10367;52.202;5.996;2023-05-13T02:27:47;22.50;;;17.73;;
20415;SDS011;10367;52.202;5.996;2023-05-13T02:30:15;21.97;;;16.23;;
20415;SDS011;10367;52.202;5.996;2023-05-13T02:32:45;19.00;;;17.00;;
20415;SDS011;10367;52.202;5.996;2023-05-13T02:35:14;19.27;;;16.83;;
20415;SDS011;10367;52.202;5.996;2023-05-13T02:37:43;18.00;;;16.13;;
20415;SDS011;10367;52.202;5.996;2023-05-13T02:40:13;24.70;;;18.40;;
20415;SDS011;10367;52.202;5.996;2023-05-13T02:42:42;21.33;;;17.10;;
20415;SDS011;10367;52.202;5.996;2023-05-13T02:45:10;22.90;;;17.10;;
20415;SDS011;10367;52.202;5.996;2023-05-13T02:47:39;22.40;;;16.53;;
20415;SDS011;10367;52.202;5.996;2023-05-13T02:50:11;17.57;;;15.87;;
20415;SDS011;10367;52.202;5.996;2023-05-13T02:52:40;18.93;;;15.67;;
20415;SDS011;10367;52.202;5.996;2023-05-13T02:55:09;18.10;;;16.30;;
20415;SDS011;10367;52.202;5.996;2023-05-13T02:57:38;20.00;;;16.70;;
20415;SDS011;10367;52.202;5.996;2023-05-13T03:00:07;17.87;;;16.03;;
20415;SDS011;10367;52.202;5.996;2023-05-13T03:02:37;22.80;;;17.47;;
20415;SDS011;10367;52.202;5.996;2023-05-13T03:05:06;18.43;;;16.13;;
20415;SDS011;10367;52.202;5.996;2023-05-13T03:07:37;24.10;;;19.17;;
20415;SDS011;10367;52.202;5.996;2023-05-13T03:10:06;17.40;;;15.50;;
20415;SDS011;10367;52.202;5.996;2023-05-13T03:12:35;26.13;;;17.97;;
20415;SDS011;10367;52.202;5.996;2023-05-13T03:15:04;21.93;;;18.43;;
20415;SDS011;10367;52.202;5.996;2023-05-13T03:17:34;20.37;;;16.97;;
20415;SDS011;10367;52.202;5.996;2023-05-13T03:20:03;25.00;;;17.13;;
20415;SDS011;10367;52.202;5.996;2023-05-13T03:22:33;27.03;;;18.10;;
20415;SDS011;10367;52.202;5.996;2023-05-13T03:25:06;23.40;;;17.47;;
20415;SDS011;10367;52.202;5.996;2023-05-13T03:27:35;27.63;;;19.87;;
20415;SDS011;10367;52.202;5.996;2023-05-13T03:30:04;17.87;;;16.10;;
20415;SDS011;10367;52.202;5.996;2023-05-13T03:32:34;20.73;;;17.23;;
20415;SDS011;10367;52.202;5.996;2023-05-13T03:35:03;20.30;;;16.23;;
20415;SDS011;10367;52.202;5.996;2023-05-13T03:37:32;18.17;;;16.27;;
20415;SDS011;10367;52.202;5.996;2023-05-13T03:40:01;22.17;;;18.47;;
20415;SDS011;10367;52.202;5.996;2023-05-13T03:42:31;27.43;;;18.73;;
20415;SDS011;10367;52.202;5.996;2023-05-13T03:45:00;27.63;;;19.20;;
20415;SDS011;10367;52.202;5.996;2023-05-13T03:47:29;23.50;;;17.53;;
20415;SDS011;10367;52.202;5.996;2023-05-13T03:49:58;18.40;;;16.47;;
20415;SDS011;10367;52.202;5.996;2023-05-13T03:52:27;21.30;;;17.40;;
20415;SDS011;10367;52.202;5.996;2023-05-13T03:54:55;23.33;;;18.60;;
20415;SDS011;10367;52.202;5.996;2023-05-13T03:57:24;21.87;;;17.63;;
20415;SDS011;10367;52.202;5.996;2023-05-13T03:59:54;33.43;;;20.20;;
20415;SDS011;10367;52.202;5.996;2023-05-13T04:02:23;26.60;;;18.10;;
20415;SDS011;10367;52.202;5.996;2023-05-13T04:04:52;18.20;;;16.27;;
20415;SDS011;10367;52.202;5.996;2023-05-13T04:07:21;28.53;;;19.93;;
20415;SDS011;10367;52.202;5.996;2023-05-13T04:09:49;23.37;;;17.47;;
20415;SDS011;10367;52.202;5.996;2023-05-13T04:12:18;26.00;;;17.77;;
20415;SDS011;10367;52.202;5.996;2023-05-13T04:14:47;25.87;;;18.83;;
20415;SDS011;10367;52.202;5.996;2023-05-13T04:17:17;25.17;;;18.17;;
20415;SDS011;10367;52.202;5.996;2023-05-13T04:19:46;27.80;;;19.67;;
20415;SDS011;10367;52.202;5.996;2023-05-13T04:22:14;24.17;;;17.50;;
20415;SDS011;10367;52.202;5.996;2023-05-13T04:24:43;25.63;;;17.77;;
20415;SDS011;10367;52.202;5.996;2023-05-13T04:27:12;20.97;;;17.63;;
20415;SDS011;10367;52.202;5.996;2023-05-13T04:29:40;22.43;;;17.90;;
20415;SDS011;10367;52.202;5.996;2023-05-13T04:32:09;22.37;;;19.10;;
20415;SDS011;10367;52.202;5.996;2023-05-13T04:34:43;21.03;;;17.70;;
20415;SDS011;10367;52.202;5.996;2023-05-13T04:37:12;20.70;;;17.40;;
20415;SDS011;10367;52.202;5.996;2023-05-13T04:39:41;18.90;;;16.83;;
20415;SDS011;10367;52.202;5.996;2023-05-13T04:42:12;21.00;;;18.20;;
20415;SDS011;10367;52.202;5.996;2023-05-13T04:44:41;20.97;;;17.77;;
20415;SDS011;10367;52.202;5.996;2023-05-13T04:47:10;23.27;;;17.90;;
20415;SDS011;10367;52.202;5.996;2023-05-13T04:49:39;25.17;;;18.97;;
20415;SDS011;10367;52.202;5.996;2023-05-13T04:52:10;21.20;;;17.67;;
20415;SDS011;10367;52.202;5.996;2023-05-13T04:54:39;26.60;;;20.30;;
20415;SDS011;10367;52.202;5.996;2023-05-13T04:57:08;21.03;;;17.03;;
20415;SDS011;10367;52.202;5.996;2023-05-13T04:59:37;23.43;;;18.47;;
20415;SDS011;10367;52.202;5.996;2023-05-13T05:02:06;20.73;;;18.50;;
20415;SDS011;10367;52.202;5.996;2023-05-13T05:04:35;20.43;;;17.80;;
20415;SDS011;10367;52.202;5.996;2023-05-13T05:07:03;20.13;;;17.03;;
20415;SDS011;10367;52.202;5.996;2023-05-13T05:09:34;22.83;;;17.33;;
20415;SDS011;10367;52.202;5.996;2023-05-13T05:12:02;19.77;;;17.27;;
20415;SDS011;10367;52.202;5.996;2023-05-13T05:14:31;24.70;;;19.03;;
20415;SDS011;10367;52.202;5.996;2023-05-13T05:17:00;25.77;;;19.67;;
20415;SDS011;10367;52.202;5.996;2023-05-13T05:19:29;26.60;;;18.97;;
20415;SDS011;10367;52.202;5.996;2023-05-13T05:21:59;23.63;;;18.77;;
20415;SDS011;10367;52.202;5.996;2023-05-13T05:24:27;22.87;;;18.27;;
20415;SDS011;10367;52.202;5.996;2023-05-13T05:27:00;24.53;;;19.90;;
20415;SDS011;10367;52.202;5.996;2023-05-13T05:29:29;26.57;;;18.90;;
20415;SDS011;10367;52.202;5.996;2023-05-13T05:31:58;25.47;;;19.20;;
20415;SDS011;10367;52.202;5.996;2023-05-13T05:34:28;27.80;;;19.40;;
20415;SDS011;10367;52.202;5.996;2023-05-13T05:37:00;28.67;;;21.77;;
20415;SDS011;10367;52.202;5.996;2023-05-13T05:39:28;26.97;;;19.93;;
20415;SDS011;10367;52.202;5.996;2023-05-13T05:41:57;22.33;;;17.33;;
20415;SDS011;10367;52.202;5.996;2023-05-13T05:44:28;27.93;;;20.23;;
20415;SDS011;10367;52.202;5.996;2023-05-13T05:46:56;26.10;;;18.70;;
20415;SDS011;10367;52.202;5.996;2023-05-13T05:49:25;28.60;;;20.07;;
20415;SDS011;10367;52.202;5.996;2023-05-13T05:51:57;28.50;;;21.57;;
20415;SDS011;10367;52.202;5.996;2023-05-13T05:54:26;26.70;;;19.83;;
20415;SDS011;10367;52.202;5.996;2023-05-13T05:56:55;27.23;;;21.03;;
20415;SDS011;10367;52.202;5.996;2023-05-13T05:59:23;27.63;;;20.30;;
20415;SDS011;10367;52.202;5.996;2023-05-13T06:01:54;27.07;;;21.47;;
20415;SDS011;10367;52.202;5.996;2023-05-13T06:04:22;25.70;;;20.23;;
20415;SDS011;10367;52.202;5.996;2023-05-13T06:06:51;26.40;;;21.43;;
20415;SDS011;10367;52.202;5.996;2023-05-13T06:09:20;22.30;;;19.83;;
20415;SDS011;10367;52.202;5.996;2023-05-13T06:11:49;33.80;;;20.47;;
20415;SDS011;10367;52.202;5.996;2023-05-13T06:14:18;25.43;;;20.30;;
20415;SDS011;10367;52.202;5.996;2023-05-13T06:16:47;27.83;;;21.63;;
20415;SDS011;10367;52.202;5.996;2023-05-13T06:19:17;27.03;;;22.23;;
20415;SDS011;10367;52.202;5.996;2023-05-13T06:21:46;28.83;;;21.37;;
20415;SDS011;10367;52.202;5.996;2023-05-13T06:24:14;29.30;;;21.37;;
20415;SDS011;10367;52.202;5.996;2023-05-13T06:26:43;25.30;;;21.37;;
20415;SDS011;10367;52.202;5.996;2023-05-13T06:29:12;23.17;;;20.67;;
20415;SDS011;10367;52.202;5.996;2023-05-13T06:31:41;24.93;;;19.20;;
20415;SDS011;10367;52.202;5.996;2023-05-13T06:34:10;26.00;;;20.97;;
20415;SDS011;10367;52.202;5.996;2023-05-13T06:36:43;23.97;;;20.30;;
20415;SDS011;10367;52.202;5.996;2023-05-13T06:39:12;27.57;;;22.00;;
20415;SDS011;10367;52.202;5.996;2023-05-13T06:41:41;23.73;;;20.37;;
20415;SDS011;10367;52.202;5.996;2023-05-13T06:44:10;24.67;;;20.03;;
20415;SDS011;10367;52.202;5.996;2023-05-13T06:46:39;26.90;;;21.03;;
20415;SDS011;10367;52.202;5.996;2023-05-13T06:49:08;22.53;;;20.27;;
20415;SDS011;10367;52.202;5.996;2023-05-13T06:51:36;23.37;;;20.77;;
20415;SDS011;10367;52.202;5.996;2023-05-13T06:54:07;25.83;;;21.47;;
20415;SDS011;10367;52.202;5.996;2023-05-13T06:56:36;25.07;;;21.63;;
20415;SDS011;10367;52.202;5.996;2023-05-13T06:59:05;25.83;;;22.33;;
20415;SDS011;10367;52.202;5.996;2023-05-13T07:01:33;23.67;;;20.00;;
20415;SDS011;10367;52.202;5.996;2023-05-13T07:04:02;23.17;;;20.63;;
20415;SDS011;10367;52.202;5.996;2023-05-13T07:06:32;24.13;;;21.60;;
20415;SDS011;10367;52.202;5.996;2023-05-13T07:09:01;33.87;;;22.37;;
20415;SDS011;10367;52.202;5.996;2023-05-13T07:11:35;25.57;;;20.90;;
20415;SDS011;10367;52.202;5.996;2023-05-13T07:14:04;24.37;;;21.87;;
20415;SDS011;10367;52.202;5.996;2023-05-13T07:16:33;25.10;;;22.33;;
20415;SDS011;10367;52.202;5.996;2023-05-13T07:19:02;31.40;;;21.93;;
20415;SDS011;10367;52.202;5.996;2023-05-13T07:21:31;26.47;;;21.70;;
20415;SDS011;10367;52.202;5.996;2023-05-13T07:24:00;35.27;;;22.93;;
20415;SDS011;10367;52.202;5.996;2023-05-13T07:26:31;24.33;;;21.77;;
20415;SDS011;10367;52.202;5.996;2023-05-13T07:29:06;26.40;;;21.43;;
20415;SDS011;10367;52.202;5.996;2023-05-13T07:31:41;31.13;;;22.93;;
20415;SDS011;10367;52.202;5.996;2023-05-13T07:34:12;28.13;;;23.40;;
20415;SDS011;10367;52.202;5.996;2023-05-13T07:36:42;24.63;;;22.07;;
20415;SDS011;10367;52.202;5.996;2023-05-13T07:39:13;28.23;;;23.73;;
20415;SDS011;10367;52.202;5.996;2023-05-13T07:41:42;28.50;;;23.27;;
20415;SDS011;10367;52.202;5.996;2023-05-13T07:44:12;26.60;;;22.23;;
20415;SDS011;10367;52.202;5.996;2023-05-13T07:46:41;26.97;;;22.93;;
20415;SDS011;10367;52.202;5.996;2023-05-13T07:49:10;26.17;;;21.87;;
20415;SDS011;10367;52.202;5.996;2023-05-13T07:51:39;27.80;;;23.67;;
20415;SDS011;10367;52.202;5.996;2023-05-13T07:54:09;26.93;;;23.10;;
20415;SDS011;10367;52.202;5.996;2023-05-13T07:56:38;31.73;;;24.80;;
20415;SDS011;10367;52.202;5.996;2023-05-13T07:59:18;28.17;;;23.63;;
20415;SDS011;10367;52.202;5.996;2023-05-13T08:01:46;30.47;;;24.67;;
20415;SDS011;10367;52.202;5.996;2023-05-13T08:04:15;26.10;;;23.37;;
20415;SDS011;10367;52.202;5.996;2023-05-13T08:06:44;27.77;;;23.40;;
20415;SDS011;10367;52.202;5.996;2023-05-13T08:09:13;26.13;;;23.57;;
20415;SDS011;10367;52.202;5.996;2023-05-13T08:11:42;25.43;;;22.73;;
20415;SDS011;10367;52.202;5.996;2023-05-13T08:14:10;25.87;;;23.13;;
20415;SDS011;10367;52.202;5.996;2023-05-13T08:16:40;23.17;;;21.00;;
20415;SDS011;10367;52.202;5.996;2023-05-13T08:19:09;25.57;;;22.13;;
20415;SDS011;10367;52.202;5.996;2023-05-13T08:21:38;25.83;;;23.17;;
20415;SDS011;10367;52.202;5.996;2023-05-13T08:24:07;25.27;;;22.27;;
20415;SDS011;10367;52.202;5.996;2023-05-13T08:26:41;24.77;;;22.33;;
20415;SDS011;10367;52.202;5.996;2023-05-13T08:29:10;24.33;;;21.77;;
20415;SDS011;10367;52.202;5.996;2023-05-13T08:31:43;25.20;;;22.63;;
20415;SDS011;10367;52.202;5.996;2023-05-13T08:34:12;24.17;;;21.80;;
20415;SDS011;10367;52.202;5.996;2023-05-13T08:36:41;25.97;;;23.43;;
20415;SDS011;10367;52.202;5.996;2023-05-13T08:39:10;26.27;;;22.37;;
20415;SDS011;10367;52.202;5.996;2023-05-13T08:41:41;28.30;;;24.57;;
20415;SDS011;10367;52.202;5.996;2023-05-13T08:44:12;26.73;;;24.00;;
20415;SDS011;10367;52.202;5.996;2023-05-13T08:46:43;31.37;;;25.97;;
20415;SDS011;10367;52.202;5.996;2023-05-13T08:49:17;31.70;;;23.57;;
20415;SDS011;10367;52.202;5.996;2023-05-13T08:51:50;25.67;;;23.27;;
20415;SDS011;10367;52.202;5.996;2023-05-13T08:54:21;28.90;;;24.90;;
20415;SDS011;10367;52.202;5.996;2023-05-13T08:56:51;26.17;;;23.40;;
20415;SDS011;10367;52.202;5.996;2023-05-13T08:59:22;31.00;;;24.80;;
20415;SDS011;10367;52.202;5.996;2023-05-13T09:01:59;27.40;;;24.70;;
20415;SDS011;10367;52.202;5.996;2023-05-13T09:04:32;28.47;;;25.47;;
20415;SDS011;10367;52.202;5.996;2023-05-13T09:07:11;26.70;;;23.97;;
20415;SDS011;10367;52.202;5.996;2023-05-13T09:09:40;26.07;;;23.67;;
20415;SDS011;10367;52.202;5.996;2023-05-13T09:12:11;28.67;;;25.67;;
20415;SDS011;10367;52.202;5.996;2023-05-13T09:15:22;27.07;;;23.87;;
20415;SDS011;10367;52.202;5.996;2023-05-13T09:17:55;26.97;;;24.37;;
20415;SDS011;10367;52.202;5.996;2023-05-13T09:20:30;27.53;;;24.90;;
20415;SDS011;10367;52.202;5.996;2023-05-13T09:23:02;25.27;;;22.87;;
20415;SDS011;10367;52.202;5.996;2023-05-13T09:25:36;25.47;;;23.20;;
20415;SDS011;10367;52.202;5.996;2023-05-13T09:28:08;25.47;;;23.30;;
20415;SDS011;10367;52.202;5.996;2023-05-13T09:30:47;26.20;;;23.80;;
20415;SDS011;10367;52.202;5.996;2023-05-13T09:33:33;26.60;;;24.10;;
20415;SDS011;10367;52.202;5.996;2023-05-13T09:36:02;28.63;;;25.23;;
20415;SDS011;10367;52.202;5.996;2023-05-13T09:38:32;28.43;;;25.83;;
20415;SDS011;10367;52.202;5.996;2023-05-13T09:41:07;25.70;;;23.50;;
20415;SDS011;10367;52.202;5.996;2023-05-13T09:43:40;24.67;;;22.27;;
20415;SDS011;10367;52.202;5.996;2023-05-13T09:46:10;27.97;;;25.27;;
20415;SDS011;10367;52.202;5.996;2023-05-13T09:48:41;25.63;;;22.90;;
20415;SDS011;10367;52.202;5.996;2023-05-13T09:51:10;27.17;;;24.67;;
20415;SDS011;10367;52.202;5.996;2023-05-13T09:53:42;26.60;;;24.23;;
20415;SDS011;10367;52.202;5.996;2023-05-13T09:56:17;25.43;;;23.13;;
20415;SDS011;10367;52.202;5.996;2023-05-13T09:58:54;29.80;;;26.67;;
20415;SDS011;10367;52.202;5.996;2023-05-13T10:01:23;26.90;;;24.30;;
20415;SDS011;10367;52.202;5.996;2023-05-13T10:03:57;26.83;;;24.37;;
20415;SDS011;10367;52.202;5.996;2023-05-13T10:06:26;28.37;;;25.77;;
20415;SDS011;10367;52.202;5.996;2023-05-13T10:08:58;26.57;;;24.27;;
20415;SDS011;10367;52.202;5.996;2023-05-13T10:11:31;26.80;;;24.57;;
20415;SDS011;10367;52.202;5.996;2023-05-13T10:14:04;26.53;;;24.33;;
20415;SDS011;10367;52.202;5.996;2023-05-13T10:16:34;27.70;;;25.03;;
20415;SDS011;10367;52.202;5.996;2023-05-13T10:19:07;27.27;;;24.73;;
20415;SDS011;10367;52.202;5.996;2023-05-13T10:21:37;26.17;;;23.97;;
20415;SDS011;10367;52.202;5.996;2023-05-13T10:24:11;26.87;;;24.50;;
20415;SDS011;10367;52.202;5.996;2023-05-13T10:26:40;26.10;;;22.80;;
20415;SDS011;10367;52.202;5.996;2023-05-13T10:29:12;25.87;;;23.87;;
20415;SDS011;10367;52.202;5.996;2023-05-13T10:31:41;26.83;;;24.10;;
20415;SDS011;10367;52.202;5.996;2023-05-13T10:34:13;24.17;;;22.47;;
20415;SDS011;10367;52.202;5.996;2023-05-13T10:36:48;24.90;;;22.73;;
20415;SDS011;10367;52.202;5.996;2023-05-13T10:42:49;25.80;;;23.50;;
20415;SDS011;10367;52.202;5.996;2023-05-13T10:45:30;29.33;;;26.33;;
20415;SDS011;10367;52.202;5.996;2023-05-13T10:48:09;25.63;;;23.63;;
20415;SDS011;10367;52.202;5.996;2023-05-13T10:50:53;25.67;;;23.60;;
20415;SDS011;10367;52.202;5.996;2023-05-13T10:53:27;26.93;;;24.63;;
20415;SDS011;10367;52.202;5.996;2023-05-13T10:55:58;24.90;;;22.83;;
20415;SDS011;10367;52.202;5.996;2023-05-13T10:58:27;26.67;;;23.97;;
20415;SDS011;10367;52.202;5.996;2023-05-13T11:01:11;26.83;;;24.23;;
20415;SDS011;10367;52.202;5.996;2023-05-13T11:03:49;24.90;;;22.83;;
20415;SDS011;10367;52.202;5.996;2023-05-13T11:06:21;26.80;;;24.57;;
20415;SDS011;10367;52.202;5.996;2023-05-13T11:08:55;24.57;;;22.80;;
20415;SDS011;10367;52.202;5.996;2023-05-13T11:11:30;26.70;;;24.17;;
20415;SDS011;10367;52.202;5.996;2023-05-13T11:14:08;25.23;;;23.13;;
20415;SDS011;10367;52.202;5.996;2023-05-13T11:16:46;25.73;;;23.60;;
20415;SDS011;10367;52.202;5.996;2023-05-13T11:19:19;26.20;;;24.03;;
20415;SDS011;10367;52.202;5.996;2023-05-13T11:21:52;25.87;;;23.57;;
20415;SDS011;10367;52.202;5.996;2023-05-13T11:24:24;26.47;;;24.17;;
20415;SDS011;10367;52.202;5.996;2023-05-13T11:26:54;24.50;;;22.80;;
20415;SDS011;10367;52.202;5.996;2023-05-13T11:29:47;24.17;;;22.37;;
20415;SDS011;10367;52.202;5.996;2023-05-13T11:35:34;28.37;;;25.73;;
20415;SDS011;10367;52.202;5.996;2023-05-13T11:38:04;26.60;;;24.60;;
20415;SDS011;10367;52.202;5.996;2023-05-13T11:40:33;27.83;;;25.47;;
20415;SDS011;10367;52.202;5.996;2023-05-13T11:43:04;26.17;;;24.27;;
20415;SDS011;10367;52.202;5.996;2023-05-13T11:45:36;28.57;;;26.07;;
20415;SDS011;10367;52.202;5.996;2023-05-13T11:48:16;24.00;;;22.23;;
20415;SDS011;10367;52.202;5.996;2023-05-13T11:50:46;25.73;;;23.83;;
20415;SDS011;10367;52.202;5.996;2023-05-13T11:53:20;24.53;;;22.70;;
20415;SDS011;10367;52.202;5.996;2023-05-13T11:55:49;26.77;;;24.43;;
20415;SDS011;10367;52.202;5.996;2023-05-13T11:58:19;26.07;;;24.03;;
20415;SDS011;10367;52.202;5.996;2023-05-13T12:00:48;25.60;;;23.77;;
20415;SDS011;10367;52.202;5.996;2023-05-13T12:03:18;26.53;;;24.43;;
20415;SDS011;10367;52.202;5.996;2023-05-13T12:05:47;26.60;;;24.43;;
20415;SDS011;10367;52.202;5.996;2023-05-13T12:08:20;26.50;;;24.23;;
20415;SDS011;10367;52.202;5.996;2023-05-13T12:10:52;26.03;;;24.23;;
20415;SDS011;10367;52.202;5.996;2023-05-13T12:13:21;25.80;;;23.83;;
20415;SDS011;10367;52.202;5.996;2023-05-13T12:15:56;25.70;;;23.83;;
20415;SDS011;10367;52.202;5.996;2023-05-13T12:18:28;28.87;;;26.13;;
20415;SDS011;10367;52.202;5.996;2023-05-13T12:20:59;26.63;;;24.10;;
20415;SDS011;10367;52.202;5.996;2023-05-13T12:23:43;26.33;;;24.17;;
20415;SDS011;10367;52.202;5.996;2023-05-13T12:26:12;24.40;;;22.63;;
20415;SDS011;10367;52.202;5.996;2023-05-13T12:28:41;26.00;;;23.87;;
20415;SDS011;10367;52.202;5.996;2023-05-13T12:31:14;24.80;;;23.20;;
20415;SDS011;10367;52.202;5.996;2023-05-13T12:33:44;25.50;;;23.43;;
20415;SDS011;10367;52.202;5.996;2023-05-13T12:36:16;26.73;;;24.63;;
20415;SDS011;10367;52.202;5.996;2023-05-13T12:38:54;26.27;;;24.27;;
20415;SDS011;10367;52.202;5.996;2023-05-13T12:41:26;27.43;;;24.73;;
20415;SDS011;10367;52.202;5.996;2023-05-13T12:43:57;25.03;;;23.00;;
20415;SDS011;10367;52.202;5.996;2023-05-13T12:46:27;25.93;;;23.90;;
20415;SDS011;10367;52.202;5.996;2023-05-13T12:48:57;26.27;;;24.27;;
20415;SDS011;10367;52.202;5.996;2023-05-13T12:51:26;27.37;;;25.17;;
20415;SDS011;10367;52.202;5.996;2023-05-13T12:53:57;28.30;;;25.77;;
20415;SDS011;10367;52.202;5.996;2023-05-13T12:56:26;27.13;;;24.73;;
20415;SDS011;10367;52.202;5.996;2023-05-13T12:58:56;27.53;;;25.23;;
20415;SDS011;10367;52.202;5.996;2023-05-13T13:01:25;26.77;;;24.57;;
20415;SDS011;10367;52.202;5.996;2023-05-13T13:03:55;26.67;;;24.50;;
20415;SDS011;10367;52.202;5.996;2023-05-13T13:06:24;26.63;;;24.67;;
20415;SDS011;10367;52.202;5.996;2023-05-13T13:08:52;25.47;;;23.67;;
20415;SDS011;10367;52.202;5.996;2023-05-13T13:11:22;27.30;;;25.13;;
20415;SDS011;10367;52.202;5.996;2023-05-13T13:13:51;25.57;;;23.70;;
20415;SDS011;10367;52.202;5.996;2023-05-13T13:16:20;27.03;;;24.87;;
20415;SDS011;10367;52.202;5.996;2023-05-13T13:18:49;26.40;;;24.40;;
20415;SDS011;10367;52.202;5.996;2023-05-13T13:21:21;27.90;;;25.57;;
20415;SDS011;10367;52.202;5.996;2023-05-13T13:23:50;27.40;;;25.10;;
20415;SDS011;10367;52.202;5.996;2023-05-13T13:26:18;26.60;;;24.60;;
20415;SDS011;10367;52.202;5.996;2023-05-13T13:28:50;25.87;;;23.80;;
20415;SDS011;10367;52.202;5.996;2023-05-13T13:31:19;26.70;;;24.53;;
20415;SDS011;10367;52.202;5.996;2023-05-13T13:33:48;26.77;;;24.80;;
20415;SDS011;10367;52.202;5.996;2023-05-13T13:36:16;28.17;;;25.93;;
20415;SDS011;10367;52.202;5.996;2023-05-13T13:38:45;28.33;;;25.97;;
20415;SDS011;10367;52.202;5.996;2023-05-13T13:41:19;27.13;;;25.13;;
20415;SDS011;10367;52.202;5.996;2023-05-13T13:43:52;29.20;;;26.53;;
20415;SDS011;10367;52.202;5.996;2023-05-13T13:46:23;27.80;;;25.30;;
20415;SDS011;10367;52.202;5.996;2023-05-13T13:48:52;26.33;;;24.23;;
20415;SDS011;10367;52.202;5.996;2023-05-13T13:51:22;26.77;;;24.63;;
20415;SDS011;10367;52.202;5.996;2023-05-13T13:53:51;25.87;;;24.13;;
20415;SDS011;10367;52.202;5.996;2023-05-13T13:56:20;25.60;;;23.80;;
20415;SDS011;10367;52.202;5.996;2023-05-13T13:58:53;26.80;;;24.67;;
20415;SDS011;10367;52.202;5.996;2023-05-13T14:01:22;28.40;;;25.97;;
20415;SDS011;10367;52.202;5.996;2023-05-13T14:03:51;26.97;;;24.97;;
20415;SDS011;10367;52.202;5.996;2023-05-13T14:06:20;26.77;;;24.80;;
20415;SDS011;10367;52.202;5.996;2023-05-13T14:08:49;26.67;;;24.43;;
20415;SDS011;10367;52.202;5.996;2023-05-13T14:11:20;27.00;;;24.90;;
20415;SDS011;10367;52.202;5.996;2023-05-13T14:13:49;25.77;;;23.97;;
20415;SDS011;10367;52.202;5.996;2023-05-13T14:16:19;26.77;;;24.77;;
20415;SDS011;10367;52.202;5.996;2023-05-13T14:18:48;28.60;;;26.30;;
20415;SDS011;10367;52.202;5.996;2023-05-13T14:21:17;25.57;;;23.67;;
20415;SDS011;10367;52.202;5.996;2023-05-13T14:23:46;26.47;;;24.53;;
20415;SDS011;10367;52.202;5.996;2023-05-13T14:26:14;25.33;;;23.57;;
20415;SDS011;10367;52.202;5.996;2023-05-13T14:28:43;28.47;;;25.83;;
20415;SDS011;10367;52.202;5.996;2023-05-13T14:31:12;27.03;;;24.83;;
20415;SDS011;10367;52.202;5.996;2023-05-13T14:33:42;29.47;;;27.03;;
20415;SDS011;10367;52.202;5.996;2023-05-13T14:36:10;28.40;;;26.00;;
20415;SDS011;10367;52.202;5.996;2023-05-13T14:38:42;26.50;;;24.50;;
20415;SDS011;10367;52.202;5.996;2023-05-13T14:41:12;25.50;;;23.80;;
20415;SDS011;10367;52.202;5.996;2023-05-13T14:43:45;28.10;;;25.73;;
20415;SDS011;10367;52.202;5.996;2023-05-13T14:46:14;26.30;;;24.33;;